Time;durP1;ratioP1;P1;durP2;ratioP2;P2;SDS_P1;SDS_P2;PMS_P1;PMS_P2;Temp;Humidity;BMP_temperature;BMP_pressure;BME280_temperature;BME280_humidity;BME280_pressure;Samples;Min_cycle;Max_cycle;Signal;HPM_P1;HPM_P2
2022/10/01 00:00:32;;;;;;;8.27;7.47;;;;;;;;;;5083812;28;20224;-68
2022/10/01 00:02:58;;;;;;;14.18;7.63;;;;;;;;;;5084049;28;20203;-68
2022/10/01 00:05:26;;;;;;;8.35;6.85;;;;;;;;;;5084406;28;20216;-69
2022/10/01 00:07:52;;;;;;;8.23;7.07;;;;;;;;;;5084271;28;20193;-67
2022/10/01 00:10:19;;;;;;;10.98;7.18;;;;;;;;;;5084311;28;20207;-67
2022/10/01 00:12:46;;;;;;;9.98;7.28;;;;;;;;;;5083968;28;20202;-67
2022/10/01 00:15:13;;;;;;;7.70;6.65;;;;;;;;;;5084222;28;20428;-70
2022/10/01 00:17:39;;;;;;;8.77;7.03;;;;;;;;;;5084317;28;20216;-69
2022/10/01 00:20:06;;;;;;;7.10;6.47;;;;;;;;;;5084206;28;20204;-69
2022/10/01 00:22:35;;;;;;;11.55;7.05;;;;;;;;;;5083877;28;20492;-69
2022/10/01 00:25:02;;;;;;;7.38;6.68;;;;;;;;;;5083959;28;20211;-69
2022/10/01 00:27:28;;;;;;;7.68;6.57;;;;;;;;;;5083803;28;20235;-69
2022/10/01 00:29:55;;;;;;;7.88;7.00;;;;;;;;;;5084115;28;20496;-69
2022/10/01 00:32:21;;;;;;;8.10;6.30;;;;;;;;;;5083526;28;20219;-69
2022/10/01 00:34:48;;;;;;;7.28;6.55;;;;;;;;;;5083979;28;20207;-69
2022/10/01 00:37:16;;;;;;;7.13;6.53;;;;;;;;;;5083771;28;20266;-69
2022/10/01 00:39:44;;;;;;;7.45;6.75;;;;;;;;;;5083734;28;20450;-69
2022/10/01 00:42:16;;;;;;;8.25;6.03;;;;;;;;;;5083381;28;20196;-69
2022/10/01 00:44:43;;;;;;;7.82;6.80;;;;;;;;;;5083494;28;20204;-69
2022/10/01 00:47:15;;;;;;;9.50;6.63;;;;;;;;;;5083512;28;20214;-69
2022/10/01 00:49:42;;;;;;;7.93;6.40;;;;;;;;;;5083596;28;20196;-69
2022/10/01 00:52:12;;;;;;;8.45;6.35;;;;;;;;;;5083417;28;20197;-70
2022/10/01 00:54:43;;;;;;;7.32;6.50;;;;;;;;;;5083224;28;20527;-70
2022/10/01 00:57:14;;;;;;;7.25;6.43;;;;;;;;;;5083396;28;20416;-70
2022/10/01 00:59:40;;;;;;;10.15;6.93;;;;;;;;;;5083393;28;20196;-70
2022/10/01 01:02:06;;;;;;;9.27;6.43;;;;;;;;;;5083394;28;20203;-70
2022/10/01 01:04:33;;;;;;;13.52;6.32;;;;;;;;;;5083089;28;20196;-70
2022/10/01 01:07:00;;;;;;;7.68;6.43;;;;;;;;;;5082819;28;20192;-70
2022/10/01 01:09:29;;;;;;;7.18;6.00;;;;;;;;;;5082839;28;20522;-70
2022/10/01 01:11:57;;;;;;;7.05;6.43;;;;;;;;;;5082010;28;20223;-70
2022/10/01 01:14:27;;;;;;;6.25;5.60;;;;;;;;;;5082706;28;20235;-70
2022/10/01 01:16:57;;;;;;;8.43;6.40;;;;;;;;;;5083035;28;20224;-70
2022/10/01 01:19:27;;;;;;;6.10;5.57;;;;;;;;;;5083031;28;20527;-70
2022/10/01 01:21:57;;;;;;;6.78;5.97;;;;;;;;;;5083037;28;20196;-70
2022/10/01 01:24:34;;;;;;;5.95;5.53;;;;;;;;;;5082560;28;20239;-68
2022/10/01 01:30:07;;;;;;;8.15;5.35;;;;;;;;;;5082086;28;20391;-68
2022/10/01 01:32:37;;;;;;;6.68;5.97;;;;;;;;;;5082473;28;20268;-68
2022/10/01 01:35:05;;;;;;;6.93;6.22;;;;;;;;;;5082622;28;20234;-68
2022/10/01 01:37:34;;;;;;;6.70;6.10;;;;;;;;;;5082721;28;20226;-70
2022/10/01 01:40:02;;;;;;;6.85;6.15;;;;;;;;;;5082696;28;20396;-69
2022/10/01 01:42:30;;;;;;;7.20;6.50;;;;;;;;;;5082268;28;20272;-69
2022/10/01 01:44:57;;;;;;;7.07;6.32;;;;;;;;;;5082587;28;20394;-69
2022/10/01 01:47:27;;;;;;;6.70;5.65;;;;;;;;;;5082324;28;20214;-69
2022/10/01 01:49:53;;;;;;;6.97;6.20;;;;;;;;;;5082407;28;20196;-69
2022/10/01 01:52:20;;;;;;;6.15;5.65;;;;;;;;;;5082448;28;20203;-70
2022/10/01 01:54:48;;;;;;;7.35;5.70;;;;;;;;;;5082367;28;20200;-70
2022/10/01 01:57:16;;;;;;;8.77;6.00;;;;;;;;;;5082429;28;20213;-70
2022/10/01 01:59:43;;;;;;;6.25;5.72;;;;;;;;;;5082247;28;20204;-70
2022/10/01 02:02:12;;;;;;;6.55;5.82;;;;;;;;;;5082024;28;20196;-70
2022/10/01 02:04:41;;;;;;;6.65;6.05;;;;;;;;;;5082409;28;20196;-70
2022/10/01 02:07:20;;;;;;;7.10;6.40;;;;;;;;;;5082334;28;20198;-70
2022/10/01 02:09:51;;;;;;;7.05;6.32;;;;;;;;;;5082272;28;20215;-70
2022/10/01 02:12:22;;;;;;;7.80;7.03;;;;;;;;;;5081981;28;20196;-70
2022/10/01 02:14:52;;;;;;;9.52;6.72;;;;;;;;;;5082037;28;20204;-70
2022/10/01 02:17:24;;;;;;;9.68;7.10;;;;;;;;;;5082103;28;20220;-70
2022/10/01 02:19:56;;;;;;;8.93;7.25;;;;;;;;;;5082094;28;20250;-70
2022/10/01 02:22:23;;;;;;;9.73;7.07;;;;;;;;;;5081736;28;20196;-70
2022/10/01 02:24:52;;;;;;;9.23;6.95;;;;;;;;;;5082035;28;20197;-69
2022/10/01 02:27:20;;;;;;;10.73;6.95;;;;;;;;;;5081851;28;20242;-69
2022/10/01 02:29:48;;;;;;;12.13;7.65;;;;;;;;;;5081927;28;20215;-69
2022/10/01 02:32:16;;;;;;;9.80;8.00;;;;;;;;;;5081977;28;20207;-69
2022/10/01 02:34:44;;;;;;;9.35;7.80;;;;;;;;;;5081918;28;20271;-69
2022/10/01 02:37:12;;;;;;;8.95;7.53;;;;;;;;;;5081902;28;20410;-69
2022/10/01 02:39:40;;;;;;;11.43;7.88;;;;;;;;;;5081925;28;20346;-68
2022/10/01 02:42:08;;;;;;;8.70;7.82;;;;;;;;;;5081864;28;20234;-68
2022/10/01 02:44:37;;;;;;;7.78;7.03;;;;;;;;;;5082001;28;20396;-70
2022/10/01 02:47:06;;;;;;;9.20;7.22;;;;;;;;;;5081894;28;20196;-70
2022/10/01 02:49:33;;;;;;;9.48;7.13;;;;;;;;;;5081867;28;20267;-70
2022/10/01 02:52:01;;;;;;;8.30;6.93;;;;;;;;;;5081692;28;20210;-70
2022/10/01 02:54:31;;;;;;;8.35;7.55;;;;;;;;;;5081414;28;20387;-68
2022/10/01 02:59:51;;;;;;;9.40;8.07;;;;;;;;;;5045504;28;20188;-69
2022/10/01 03:02:17;;;;;;;7.95;7.25;;;;;;;;;;5081416;28;20537;-69
2022/10/01 03:04:46;;;;;;;14.40;7.90;;;;;;;;;;5081601;28;20224;-68
2022/10/01 03:07:12;;;;;;;11.10;7.93;;;;;;;;;;5082027;28;20222;-68
2022/10/01 03:09:39;;;;;;;9.80;8.38;;;;;;;;;;5081612;28;20205;-68
2022/10/01 03:12:06;;;;;;;12.10;8.73;;;;;;;;;;5081865;28;20219;-68
2022/10/01 03:14:32;;;;;;;9.30;8.35;;;;;;;;;;5081529;28;20196;-68
2022/10/01 03:16:59;;;;;;;12.57;8.88;;;;;;;;;;5081501;28;20288;-68
2022/10/01 03:19:25;;;;;;;13.40;9.40;;;;;;;;;;5081424;28;20220;-68
2022/10/01 03:21:51;;;;;;;17.23;9.13;;;;;;;;;;5081735;28;20267;-68
2022/10/01 03:24:18;;;;;;;11.82;8.52;;;;;;;;;;5081204;28;20197;-68
2022/10/01 03:26:45;;;;;;;12.70;9.25;;;;;;;;;;5081587;28;20205;-68
2022/10/01 03:29:12;;;;;;;11.02;8.27;;;;;;;;;;5081323;28;20197;-68
2022/10/01 03:31:38;;;;;;;15.30;8.57;;;;;;;;;;5081461;28;20261;-68
2022/10/01 03:34:04;;;;;;;9.23;7.63;;;;;;;;;;5081084;28;20388;-68
2022/10/01 03:36:31;;;;;;;10.23;7.90;;;;;;;;;;5084593;28;20197;-68
2022/10/01 03:38:57;;;;;;;12.65;7.80;;;;;;;;;;5084808;28;20469;-68
2022/10/01 03:41:23;;;;;;;8.60;7.35;;;;;;;;;;5084963;28;20527;-68
2022/10/01 03:43:51;;;;;;;8.52;7.28;;;;;;;;;;5084284;28;20199;-68
2022/10/01 03:46:17;;;;;;;11.27;7.20;;;;;;;;;;5084831;28;20196;-70
2022/10/01 03:48:44;;;;;;;8.40;6.90;;;;;;;;;;5084627;28;20249;-69
2022/10/01 03:51:10;;;;;;;7.05;6.45;;;;;;;;;;5084835;28;20270;-68
2022/10/01 03:53:36;;;;;;;8.52;7.00;;;;;;;;;;5084459;28;20224;-68
2022/10/01 03:56:03;;;;;;;12.38;7.85;;;;;;;;;;5084698;28;20197;-69
2022/10/01 03:58:29;;;;;;;14.20;7.57;;;;;;;;;;5084491;28;20259;-69
2022/10/01 04:00:59;;;;;;;8.93;7.82;;;;;;;;;;5084578;28;20203;-67
2022/10/01 04:03:26;;;;;;;9.30;7.82;;;;;;;;;;5084390;28;20435;-66
2022/10/01 04:05:53;;;;;;;8.43;7.53;;;;;;;;;;5084344;28;20288;-67
2022/10/01 04:08:19;;;;;;;8.38;7.63;;;;;;;;;;5084416;28;20192;-66
2022/10/01 04:10:45;;;;;;;8.15;7.35;;;;;;;;;;5084433;28;20199;-69
2022/10/01 04:13:11;;;;;;;7.43;6.82;;;;;;;;;;5084220;28;20477;-69
2022/10/01 04:15:39;;;;;;;13.65;10.65;;;;;;;;;;5084208;28;20197;-69
2022/10/01 04:18:06;;;;;;;21.25;14.43;;;;;;;;;;5084326;28;20531;-69
2022/10/01 04:20:33;;;;;;;12.20;8.93;;;;;;;;;;5084325;28;20206;-68
2022/10/01 04:22:59;;;;;;;12.02;8.35;;;;;;;;;;5083816;28;20197;-69
2022/10/01 04:25:25;;;;;;;8.48;7.40;;;;;;;;;;5083833;28;20267;-69
2022/10/01 04:27:56;;;;;;;11.23;8.02;;;;;;;;;;5083837;28;20225;-69
2022/10/01 04:30:23;;;;;;;8.60;7.75;;;;;;;;;;5083811;28;20216;-69
2022/10/01 04:32:49;;;;;;;7.65;6.95;;;;;;;;;;5083987;28;20391;-69
2022/10/01 04:35:16;;;;;;;8.13;7.32;;;;;;;;;;5083948;28;20196;-69
2022/10/01 04:37:43;;;;;;;9.70;6.88;;;;;;;;;;5083947;28;20204;-69
2022/10/01 04:40:10;;;;;;;8.32;7.50;;;;;;;;;;5083669;28;20199;-69
2022/10/01 04:42:38;;;;;;;6.80;6.10;;;;;;;;;;5083391;28;20208;-69
2022/10/01 04:45:05;;;;;;;7.68;6.90;;;;;;;;;;5083950;28;20197;-68
2022/10/01 04:47:31;;;;;;;10.55;6.72;;;;;;;;;;5082599;28;20202;-68
2022/10/01 04:49:58;;;;;;;7.65;6.38;;;;;;;;;;5083648;28;20455;-69
2022/10/01 04:52:25;;;;;;;11.35;7.20;;;;;;;;;;5083185;28;20196;-69
2022/10/01 04:54:52;;;;;;;6.72;6.15;;;;;;;;;;5083441;28;20400;-69
2022/10/01 04:57:20;;;;;;;7.65;6.95;;;;;;;;;;5083306;28;20235;-69
2022/10/01 04:59:46;;;;;;;7.05;6.20;;;;;;;;;;5083473;28;20292;-69
2022/10/01 05:02:13;;;;;;;7.53;6.78;;;;;;;;;;5082937;28;20203;-69
2022/10/01 05:04:39;;;;;;;8.43;7.32;;;;;;;;;;5083145;28;20196;-69
2022/10/01 05:07:06;;;;;;;12.23;7.63;;;;;;;;;;5083145;28;20203;-69
2022/10/01 05:09:34;;;;;;;8.85;7.95;;;;;;;;;;5083128;28;20523;-69
2022/10/01 05:12:00;;;;;;;12.40;7.72;;;;;;;;;;5082980;28;20231;-69
2022/10/01 05:14:26;;;;;;;10.65;8.23;;;;;;;;;;5082974;28;20203;-69
2022/10/01 05:16:52;;;;;;;10.82;8.00;;;;;;;;;;5083079;28;20200;-69
2022/10/01 05:19:20;;;;;;;8.45;7.55;;;;;;;;;;5083000;28;20408;-68
2022/10/01 05:21:46;;;;;;;7.68;6.95;;;;;;;;;;5083034;28;20235;-68
2022/10/01 05:24:13;;;;;;;8.65;7.63;;;;;;;;;;5082705;28;20201;-69
2022/10/01 05:26:40;;;;;;;8.68;7.63;;;;;;;;;;5082684;28;20208;-69
2022/10/01 05:29:06;;;;;;;7.75;7.05;;;;;;;;;;5082939;28;20207;-69
2022/10/01 05:31:33;;;;;;;8.70;7.80;;;;;;;;;;5082599;28;20211;-69
2022/10/01 05:33:59;;;;;;;8.93;7.55;;;;;;;;;;5082514;28;20204;-69
2022/10/01 05:36:25;;;;;;;9.63;7.38;;;;;;;;;;5082737;28;20267;-69
2022/10/01 05:38:52;;;;;;;12.82;8.13;;;;;;;;;;5082419;28;20528;-69
2022/10/01 05:41:18;;;;;;;9.15;7.25;;;;;;;;;;5082783;28;20196;-69
2022/10/01 05:43:47;;;;;;;7.85;6.90;;;;;;;;;;5082374;28;20200;-69
2022/10/01 05:46:13;;;;;;;10.85;7.05;;;;;;;;;;5082790;28;20507;-70
2022/10/01 05:48:39;;;;;;;10.07;8.25;;;;;;;;;;5082544;28;20192;-70
2022/10/01 05:51:07;;;;;;;7.47;5.95;;;;;;;;;;5082413;28;20219;-70
2022/10/01 05:53:33;;;;;;;6.85;6.15;;;;;;;;;;5082009;28;20192;-70
2022/10/01 05:56:01;;;;;;;6.65;5.90;;;;;;;;;;5082444;28;20204;-70
2022/10/01 05:58:28;;;;;;;6.28;5.53;;;;;;;;;;5081877;28;20408;-70
2022/10/01 06:00:55;;;;;;;9.43;5.30;;;;;;;;;;5082299;28;20203;-70
2022/10/01 06:03:22;;;;;;;7.53;6.72;;;;;;;;;;5082149;28;20221;-71
2022/10/01 06:05:48;;;;;;;7.10;6.03;;;;;;;;;;5082193;28;20414;-71
2022/10/01 06:08:14;;;;;;;8.23;6.53;;;;;;;;;;5082167;28;20196;-71
2022/10/01 06:10:41;;;;;;;6.22;5.72;;;;;;;;;;5081987;28;20196;-70
2022/10/01 06:13:07;;;;;;;8.55;4.75;;;;;;;;;;5082062;28;20203;-70
2022/10/01 06:15:36;;;;;;;6.63;5.40;;;;;;;;;;5082377;28;20196;-70
2022/10/01 06:18:04;;;;;;;5.53;5.03;;;;;;;;;;5082315;28;20396;-70
2022/10/01 06:20:30;;;;;;;6.13;5.63;;;;;;;;;;5082058;28;20192;-70
2022/10/01 06:22:57;;;;;;;8.10;5.13;;;;;;;;;;5081862;28;20204;-71
2022/10/01 06:25:24;;;;;;;5.72;5.18;;;;;;;;;;5082173;28;20196;-70
2022/10/01 06:27:54;;;;;;;5.20;4.80;;;;;;;;;;5082117;28;20378;-70
2022/10/01 06:30:20;;;;;;;9.50;5.72;;;;;;;;;;5081947;28;20357;-70
2022/10/01 06:32:47;;;;;;;6.35;5.70;;;;;;;;;;5081616;28;20200;-70
2022/10/01 06:35:14;;;;;;;11.98;6.03;;;;;;;;;;5082076;28;20397;-70
2022/10/01 06:37:41;;;;;;;7.95;6.35;;;;;;;;;;5081994;28;20201;-70
2022/10/01 06:40:07;;;;;;;7.93;6.07;;;;;;;;;;5082128;28;20242;-70
2022/10/01 06:42:33;;;;;;;6.22;5.70;;;;;;;;;;5081997;28;20205;-71
2022/10/01 06:45:00;;;;;;;5.38;4.88;;;;;;;;;;5081935;28;20206;-71
2022/10/01 06:47:26;;;;;;;5.88;4.60;;;;;;;;;;5082031;28;20196;-71
2022/10/01 06:49:52;;;;;;;4.25;3.95;;;;;;;;;;5081893;28;20500;-71
2022/10/01 06:55:04;;;;;;;4.03;3.72;;;;;;;;;;5082926;28;20215;-69
2022/10/01 06:57:32;;;;;;;5.57;3.83;;;;;;;;;;5082688;28;20200;-69
2022/10/01 07:00:02;;;;;;;3.90;3.50;;;;;;;;;;5081846;28;20216;-69
2022/10/01 07:02:28;;;;;;;3.50;3.30;;;;;;;;;;5081133;28;20268;-69
2022/10/01 07:04:57;;;;;;;4.40;3.15;;;;;;;;;;5082107;28;20567;-69
2022/10/01 07:07:25;;;;;;;3.60;3.40;;;;;;;;;;5081744;28;20197;-69
2022/10/01 07:09:52;;;;;;;4.85;4.13;;;;;;;;;;5082439;28;20200;-63
2022/10/01 07:12:18;;;;;;;5.93;5.30;;;;;;;;;;5085641;28;20227;-63
2022/10/01 07:14:44;;;;;;;4.93;4.50;;;;;;;;;;5085138;28;20196;-62
2022/10/01 07:17:11;;;;;;;5.85;5.35;;;;;;;;;;5085597;28;20505;-60
2022/10/01 07:19:37;;;;;;;5.47;4.97;;;;;;;;;;5085315;28;20492;-60
2022/10/01 07:22:03;;;;;;;5.60;4.90;;;;;;;;;;5085383;28;20361;-60
2022/10/01 07:24:31;;;;;;;10.88;6.72;;;;;;;;;;5085160;28;20203;-63
2022/10/01 07:26:57;;;;;;;7.90;6.07;;;;;;;;;;5085263;28;20217;-63
2022/10/01 07:29:23;;;;;;;9.43;6.57;;;;;;;;;;5085196;28;20200;-62
2022/10/01 07:31:50;;;;;;;9.63;7.03;;;;;;;;;;5085074;28;20204;-60
2022/10/01 07:34:17;;;;;;;7.90;7.15;;;;;;;;;;5085102;28;20210;-63
2022/10/01 07:36:44;;;;;;;7.32;6.60;;;;;;;;;;5085300;28;20204;-60
2022/10/01 07:39:10;;;;;;;6.80;6.20;;;;;;;;;;5084906;28;20243;-61
2022/10/01 07:41:38;;;;;;;7.30;6.53;;;;;;;;;;5085053;28;20192;-61
2022/10/01 07:44:04;;;;;;;6.68;6.03;;;;;;;;;;5084529;28;20569;-60
2022/10/01 07:46:31;;;;;;;7.45;6.10;;;;;;;;;;5085071;28;20196;-61
2022/10/01 07:48:57;;;;;;;7.65;5.60;;;;;;;;;;5084977;28;20272;-61
2022/10/01 07:51:25;;;;;;;7.13;5.80;;;;;;;;;;5085029;28;20196;-61
2022/10/01 07:53:51;;;;;;;7.20;5.90;;;;;;;;;;5084542;28;20251;-61
2022/10/01 07:56:18;;;;;;;5.90;5.25;;;;;;;;;;5084695;28;20203;-61
2022/10/01 07:58:46;;;;;;;6.88;5.25;;;;;;;;;;5084483;28;20197;-61
2022/10/01 08:01:12;;;;;;;5.28;4.75;;;;;;;;;;5084695;28;20197;-61
2022/10/01 08:03:38;;;;;;;6.38;5.70;;;;;;;;;;5084468;28;20200;-61
2022/10/01 08:06:06;;;;;;;7.43;5.78;;;;;;;;;;5084546;28;20223;-60
2022/10/01 08:08:32;;;;;;;5.85;5.25;;;;;;;;;;5084382;28;20200;-60
2022/10/01 08:11:01;;;;;;;5.93;4.78;;;;;;;;;;5084220;28;20192;-60
2022/10/01 08:13:28;;;;;;;4.30;3.63;;;;;;;;;;5084421;28;20196;-61
2022/10/01 08:15:56;;;;;;;6.38;4.05;;;;;;;;;;5084422;28;20203;-61
2022/10/01 08:18:23;;;;;;;4.45;3.65;;;;;;;;;;5084288;28;20196;-61
2022/10/01 08:20:49;;;;;;;4.05;3.75;;;;;;;;;;5083908;28;20228;-61
2022/10/01 08:23:16;;;;;;;4.10;3.80;;;;;;;;;;5083952;28;20196;-61
2022/10/01 08:25:44;;;;;;;3.30;3.00;;;;;;;;;;5084043;28;20196;-61
2022/10/01 08:28:11;;;;;;;6.72;3.20;;;;;;;;;;5084328;28;20197;-61
2022/10/01 08:30:39;;;;;;;3.92;3.63;;;;;;;;;;5084276;28;20508;-61
2022/10/01 08:33:07;;;;;;;3.55;3.35;;;;;;;;;;5084062;28;20246;-61
2022/10/01 08:35:33;;;;;;;3.88;3.10;;;;;;;;;;5083936;28;20546;-61
2022/10/01 08:38:00;;;;;;;3.70;3.00;;;;;;;;;;5083995;28;20526;-61
2022/10/01 08:40:27;;;;;;;4.55;2.90;;;;;;;;;;5084349;28;20231;-61
2022/10/01 08:42:56;;;;;;;3.45;3.00;;;;;;;;;;5083925;28;20204;-62
2022/10/01 08:45:25;;;;;;;4.68;3.45;;;;;;;;;;5083657;28;20196;-61
2022/10/01 08:47:54;;;;;;;4.75;3.30;;;;;;;;;;5083759;28;20500;-61
2022/10/01 08:50:28;;;;;;;3.40;3.20;;;;;;;;;;5083651;28;20230;-61
2022/10/01 08:52:56;;;;;;;2.95;2.75;;;;;;;;;;5083530;28;20204;-61
2022/10/01 08:55:24;;;;;;;7.95;4.88;;;;;;;;;;5083723;28;20196;-61
2022/10/01 08:57:53;;;;;;;3.13;2.92;;;;;;;;;;5083499;28;20203;-61
2022/10/01 09:00:20;;;;;;;5.85;5.28;;;;;;;;;;5083364;28;20212;-61
2022/10/01 09:02:47;;;;;;;2.90;2.70;;;;;;;;;;5083261;28;20234;-61
2022/10/01 09:05:24;;;;;;;3.80;3.50;;;;;;;;;;5083777;28;20220;-61
2022/10/01 09:08:07;;;;;;;2.53;2.42;;;;;;;;;;5083491;28;20426;-61
2022/10/01 09:10:42;;;;;;;1.80;1.70;;;;;;;;;;5083388;28;20192;-61
2022/10/01 09:13:21;;;;;;;1.73;1.52;;;;;;;;;;5083003;28;20391;-61
2022/10/01 09:15:51;;;;;;;4.32;4.07;;;;;;;;;;5083340;28;20184;-61
2022/10/01 09:18:21;;;;;;;2.20;2.10;;;;;;;;;;5083347;28;20413;-61
2022/10/01 09:20:51;;;;;;;1.85;1.75;;;;;;;;;;5083108;28;20223;-61
2022/10/01 09:23:24;;;;;;;2.08;1.90;;;;;;;;;;5082787;28;20196;-61
2022/10/01 09:25:50;;;;;;;1.15;1.13;;;;;;;;;;5082886;28;20200;-61
2022/10/01 09:28:19;;;;;;;1.77;1.30;;;;;;;;;;5083113;28;20465;-61
2022/10/01 09:30:48;;;;;;;1.02;0.95;;;;;;;;;;5083232;28;20199;-61
2022/10/01 09:33:16;;;;;;;1.50;1.30;;;;;;;;;;5081952;28;20196;-61
2022/10/01 09:35:44;;;;;;;4.63;4.32;;;;;;;;;;5082840;28;20234;-61
2022/10/01 09:38:15;;;;;;;1.60;1.60;;;;;;;;;;5083118;28;20205;-61
2022/10/01 09:40:46;;;;;;;0.80;0.80;;;;;;;;;;5082552;28;20216;-61
2022/10/01 09:43:13;;;;;;;1.02;0.80;;;;;;;;;;5082381;28;20196;-61
2022/10/01 09:45:39;;;;;;;0.98;0.98;;;;;;;;;;5082802;28;20200;-61
2022/10/01 09:48:13;;;;;;;2.10;0.98;;;;;;;;;;5082811;28;20391;-61
2022/10/01 09:50:42;;;;;;;7.07;2.72;;;;;;;;;;5082707;28;20196;-61
2022/10/01 09:53:13;;;;;;;1.48;1.25;;;;;;;;;;5082354;28;20196;-61
2022/10/01 09:55:42;;;;;;;1.25;1.10;;;;;;;;;;5082842;28;20227;-61
2022/10/01 09:58:11;;;;;;;1.30;1.20;;;;;;;;;;5082594;28;20199;-61
2022/10/01 10:00:39;;;;;;;1.30;1.30;;;;;;;;;;5082410;28;20226;-61
2022/10/01 10:03:06;;;;;;;1.13;1.13;;;;;;;;;;5082207;28;20391;-61
2022/10/01 10:05:40;;;;;;;1.35;1.25;;;;;;;;;;5082576;28;20216;-61
2022/10/01 10:08:11;;;;;;;1.25;1.10;;;;;;;;;;5082279;28;20196;-61
2022/10/01 10:10:38;;;;;;;1.88;1.00;;;;;;;;;;5082286;28;20196;-61
2022/10/01 10:13:16;;;;;;;2.47;1.20;;;;;;;;;;5082096;28;20518;-61
2022/10/01 10:15:50;;;;;;;1.00;1.00;;;;;;;;;;5082254;28;20423;-61
2022/10/01 10:18:17;;;;;;;0.90;0.90;;;;;;;;;;5082582;28;20196;-61
2022/10/01 10:20:44;;;;;;;1.17;1.17;;;;;;;;;;5082435;28;20239;-61
2022/10/01 10:23:14;;;;;;;1.27;0.90;;;;;;;;;;5082039;28;20205;-61
2022/10/01 10:25:40;;;;;;;0.80;0.75;;;;;;;;;;5082325;28;20423;-61
2022/10/01 10:28:18;;;;;;;0.98;0.98;;;;;;;;;;5081998;28;20528;-62
2022/10/01 10:30:46;;;;;;;1.27;1.17;;;;;;;;;;5081547;28;20390;-61
2022/10/01 10:33:14;;;;;;;1.30;1.30;;;;;;;;;;5081305;28;20208;-61
2022/10/01 10:35:40;;;;;;;2.53;0.80;;;;;;;;;;5081585;28;20196;-61
2022/10/01 10:38:07;;;;;;;0.80;0.80;;;;;;;;;;5081357;28;20196;-61
2022/10/01 10:40:39;;;;;;;1.10;1.10;;;;;;;;;;5081578;28;20291;-61
2022/10/01 10:43:06;;;;;;;1.13;1.10;;;;;;;;;;5081328;28;20196;-61
2022/10/01 10:45:36;;;;;;;0.90;0.90;;;;;;;;;;5085048;28;20204;-61
2022/10/01 10:48:05;;;;;;;2.03;2.03;;;;;;;;;;5085678;28;20196;-60
2022/10/01 10:50:32;;;;;;;14.40;11.20;;;;;;;;;;5085484;28;20381;-61
2022/10/01 10:52:58;;;;;;;3.75;3.45;;;;;;;;;;5085240;28;20242;-61
2022/10/01 10:55:27;;;;;;;2.00;1.95;;;;;;;;;;5085657;28;20203;-61
2022/10/01 10:57:53;;;;;;;3.97;3.60;;;;;;;;;;5085626;28;20212;-61
2022/10/01 11:00:20;;;;;;;3.05;2.50;;;;;;;;;;5085831;28;20216;-61
2022/10/01 11:02:51;;;;;;;3.78;3.47;;;;;;;;;;5085579;28;20196;-61
2022/10/01 11:05:20;;;;;;;1.73;1.63;;;;;;;;;;5085284;28;20224;-61
2022/10/01 11:07:47;;;;;;;5.15;4.35;;;;;;;;;;5085215;28;20203;-61
2022/10/01 11:10:27;;;;;;;7.47;5.93;;;;;;;;;;5085344;28;20189;-61
2022/10/01 11:13:08;;;;;;;4.30;3.53;;;;;;;;;;5085187;28;20214;-61
2022/10/01 11:15:42;;;;;;;1.15;1.00;;;;;;;;;;5085202;28;20200;-61
2022/10/01 11:18:25;;;;;;;1.67;1.45;;;;;;;;;;5085160;28;20212;-60
2022/10/01 11:20:59;;;;;;;1.00;1.00;;;;;;;;;;5084872;28;20291;-60
2022/10/01 11:23:46;;;;;;;1.52;1.42;;;;;;;;;;5084852;28;20196;-61
2022/10/01 11:26:18;;;;;;;2.28;1.25;;;;;;;;;;5079579;28;20208;-61
2022/10/01 11:28:51;;;;;;;2.63;1.17;;;;;;;;;;5084774;28;20204;-61
2022/10/01 11:31:23;;;;;;;1.10;1.10;;;;;;;;;;5084602;28;20786;-61
2022/10/01 11:33:58;;;;;;;0.80;0.80;;;;;;;;;;5085142;28;20196;-61
2022/10/01 11:36:28;;;;;;;2.67;1.70;;;;;;;;;;5085377;28;20390;-61
2022/10/01 11:38:56;;;;;;;1.27;1.27;;;;;;;;;;5085186;28;20211;-61
2022/10/01 11:41:25;;;;;;;1.77;1.30;;;;;;;;;;5084799;28;20223;-60
2022/10/01 11:43:53;;;;;;;3.35;1.50;;;;;;;;;;5084614;28;20397;-61
2022/10/01 11:46:24;;;;;;;1.27;0.80;;;;;;;;;;5085109;28;20267;-60
2022/10/01 11:48:52;;;;;;;0.93;0.90;;;;;;;;;;5085024;28;20196;-60
2022/10/01 11:51:20;;;;;;;1.13;1.13;;;;;;;;;;5085002;28;20192;-63
2022/10/01 11:53:49;;;;;;;2.45;1.42;;;;;;;;;;5084573;28;20196;-60
2022/10/01 11:59:04;;;;;;;1.23;1.00;;;;;;;;;;5084901;28;20255;-60
2022/10/01 12:01:33;;;;;;;2.78;2.30;;;;;;;;;;5084648;28;20389;-61
2022/10/01 12:04:11;;;;;;;1.08;0.98;;;;;;;;;;5084321;28;20196;-61
2022/10/01 12:06:40;;;;;;;3.38;2.35;;;;;;;;;;5084681;28;20254;-61
2022/10/01 12:09:12;;;;;;;2.17;2.08;;;;;;;;;;5084397;28;20196;-61
2022/10/01 12:11:42;;;;;;;4.30;3.05;;;;;;;;;;5084739;28;20251;-61
2022/10/01 12:14:10;;;;;;;9.60;5.10;;;;;;;;;;5084310;28;20200;-61
2022/10/01 12:16:41;;;;;;;8.40;5.07;;;;;;;;;;5084424;28;20197;-61
2022/10/01 12:19:12;;;;;;;3.10;2.90;;;;;;;;;;5084223;28;20200;-61
2022/10/01 12:21:41;;;;;;;1.70;1.60;;;;;;;;;;5084252;28;20287;-61
2022/10/01 12:24:13;;;;;;;1.10;1.10;;;;;;;;;;5083971;28;20526;-61
2022/10/01 12:26:45;;;;;;;1.15;1.15;;;;;;;;;;5084127;28;20211;-60
2022/10/01 12:29:15;;;;;;;6.95;4.65;;;;;;;;;;5084188;28;20196;-61
2022/10/01 12:31:43;;;;;;;10.45;4.90;;;;;;;;;;5084043;28;20488;-61
2022/10/01 12:34:14;;;;;;;2.45;2.25;;;;;;;;;;5083963;28;20204;-60
2022/10/01 12:36:46;;;;;;;2.03;1.48;;;;;;;;;;5084214;28;20211;-61
2022/10/01 12:39:19;;;;;;;1.85;1.00;;;;;;;;;;5084084;28;20228;-61
2022/10/01 12:41:56;;;;;;;0.98;0.98;;;;;;;;;;5083761;28;20216;-61
2022/10/01 12:44:37;;;;;;;0.70;0.70;;;;;;;;;;5083695;28;20284;-61
2022/10/01 12:47:16;;;;;;;0.55;0.55;;;;;;;;;;5081316;28;20204;-61
2022/10/01 12:49:47;;;;;;;2.25;0.70;;;;;;;;;;5083831;28;20204;-61
2022/10/01 12:52:17;;;;;;;0.60;0.60;;;;;;;;;;5083581;28;20453;-61
2022/10/01 12:54:48;;;;;;;0.47;0.47;;;;;;;;;;5083977;28;20387;-61
2022/10/01 12:57:21;;;;;;;0.73;0.47;;;;;;;;;;5083710;28;20211;-61
2022/10/01 12:59:58;;;;;;;1.30;0.80;;;;;;;;;;5083604;28;20268;-61
2022/10/01 13:02:38;;;;;;;1.48;0.50;;;;;;;;;;5083679;28;20288;-61
2022/10/01 13:05:18;;;;;;;0.30;0.30;;;;;;;;;;5083605;28;20226;-61
2022/10/01 13:07:49;;;;;;;2.10;2.00;;;;;;;;;;5082890;28;20204;-61
2022/10/01 13:10:24;;;;;;;2.78;2.67;;;;;;;;;;5083687;28;20200;-62
2022/10/01 13:12:58;;;;;;;0.75;0.45;;;;;;;;;;5083374;28;20200;-62
2022/10/01 13:15:26;;;;;;;1.10;0.95;;;;;;;;;;5083298;28;20208;-62
2022/10/01 13:17:57;;;;;;;2.10;1.90;;;;;;;;;;5083109;28;20196;-62
2022/10/01 13:20:29;;;;;;;6.28;2.90;;;;;;;;;;5083172;28;20196;-62
2022/10/01 13:22:59;;;;;;;1.23;1.20;;;;;;;;;;5082781;28;20223;-61
2022/10/01 13:25:30;;;;;;;2.40;2.30;;;;;;;;;;5083259;28;20202;-62
2022/10/01 13:27:59;;;;;;;0.40;0.40;;;;;;;;;;5082876;28;20204;-61
2022/10/01 13:30:42;;;;;;;0.60;0.60;;;;;;;;;;5099728;28;21013;-61
2022/10/01 13:33:21;;;;;;;0.50;0.50;;;;;;;;;;5099333;28;20199;-61
2022/10/01 13:35:52;;;;;;;0.57;0.50;;;;;;;;;;5099842;28;20390;-61
2022/10/01 13:38:28;;;;;;;0.77;0.77;;;;;;;;;;5099724;28;20203;-61
2022/10/01 13:40:58;;;;;;;0.90;0.70;;;;;;;;;;5099926;28;20201;-61
2022/10/01 13:43:25;;;;;;;0.95;0.95;;;;;;;;;;5099446;28;20217;-61
2022/10/01 13:45:53;;;;;;;0.80;0.80;;;;;;;;;;5093859;28;20192;-62
2022/10/01 13:48:22;;;;;;;0.90;0.90;;;;;;;;;;5095338;28;20234;-62
2022/10/01 13:51:01;;;;;;;1.38;0.70;;;;;;;;;;5096129;28;20271;-63
2022/10/01 13:53:28;;;;;;;0.80;0.80;;;;;;;;;;5096292;28;20209;-63
2022/10/01 13:55:55;;;;;;;2.38;0.70;;;;;;;;;;5090690;28;20537;-62
2022/10/01 13:58:23;;;;;;;2.10;0.80;;;;;;;;;;5082279;28;20253;-63
2022/10/01 14:00:51;;;;;;;0.90;0.90;;;;;;;;;;5087570;28;20205;-63
2022/10/01 14:03:32;;;;;;;0.50;0.50;;;;;;;;;;5101290;28;20199;-63
2022/10/01 14:05:59;;;;;;;0.65;0.60;;;;;;;;;;5085527;28;20649;-63
2022/10/01 14:08:28;;;;;;;0.40;0.40;;;;;;;;;;5096580;28;20211;-63
2022/10/01 14:16:28;;;;;;;4.65;4.32;;;;;;;;;;5096120;28;20557;-63
2022/10/01 14:18:56;;;;;;;1.65;1.65;;;;;;;;;;5096364;28;20206;-62
2022/10/01 14:21:32;;;;;;;0.77;0.77;;;;;;;;;;5095957;28;20204;-63
2022/10/01 14:24:04;;;;;;;1.38;1.30;;;;;;;;;;5095482;28;20211;-63
2022/10/01 14:26:34;;;;;;;8.32;2.08;;;;;;;;;;5095971;28;20203;-62
2022/10/01 14:29:07;;;;;;;0.98;0.98;;;;;;;;;;5095644;28;20408;-62
2022/10/01 14:31:39;;;;;;;1.90;1.50;;;;;;;;;;5096045;28;20277;-63
2022/10/01 14:34:24;;;;;;;1.80;1.20;;;;;;;;;;5095759;28;20438;-63
2022/10/01 14:36:51;;;;;;;0.88;0.80;;;;;;;;;;5095758;28;20215;-63
2022/10/01 14:39:19;;;;;;;1.70;1.13;;;;;;;;;;5096192;28;20215;-63
2022/10/01 14:41:46;;;;;;;0.70;0.70;;;;;;;;;;5083322;28;20231;-63
2022/10/01 14:44:23;;;;;;;1.75;0.60;;;;;;;;;;5081935;28;20432;-63
2022/10/01 14:46:50;;;;;;;0.50;0.50;;;;;;;;;;5081922;28;20204;-62
2022/10/01 14:49:20;;;;;;;1.25;0.60;;;;;;;;;;5082208;28;20546;-62
2022/10/01 14:51:51;;;;;;;1.05;0.57;;;;;;;;;;5081913;28;20204;-62
2022/10/01 14:54:19;;;;;;;0.80;0.80;;;;;;;;;;5081801;28;20204;-63
2022/10/01 14:56:45;;;;;;;1.13;0.43;;;;;;;;;;5082187;28;20213;-63
2022/10/01 14:59:16;;;;;;;0.65;0.65;;;;;;;;;;5081798;28;20209;-63
2022/10/01 15:01:53;;;;;;;0.50;0.50;;;;;;;;;;5081896;28;20219;-62
2022/10/01 15:04:20;;;;;;;0.63;0.50;;;;;;;;;;5081823;28;20226;-63
2022/10/01 15:06:47;;;;;;;0.60;0.60;;;;;;;;;;5081792;28;20205;-62